Mattituck, New York
Current Conditions -  °F | °C
As of 9:53 PM on Saturday 22 Nov 2014 (Local Time) from KFOK Reporting Station
Broken Clouds Broken Clouds  
Wind Chill: 36°   Ceiling: 11000
Heat Index: 44°   Visibility: 10mi
Dew Point: 27°   Wind: 18mph
Humidity: 51%   Direction: 240°WSW
Pressure: 30.22"   Gusts: NA
Location:  40.99°N, 72.53°W
Report Text: KFOK 230253Z AUTO 24016KT 10SM BKN110 07/M03 A3022 RMK AO2 SLP233 T00671028 56008 TSNO
Loading
Personal Weather Stations






























Interactive Weather Map New forecast layout! Learn more

10-Day Weather Forecast

Advertisements
Track Severe Weather on mobile